createdAt,value
2016-11-18T00:00:52.975Z,57.28
2016-11-18T00:01:52.954Z,57.28
2016-11-18T00:02:52.938Z,57.25
2016-11-18T00:03:52.927Z,57.28
2016-11-18T00:04:52.940Z,56.96
2016-11-18T00:05:52.892Z,56.99
2016-11-18T00:06:52.885Z,57.28
2016-11-18T00:07:52.860Z,57.06
2016-11-18T00:08:52.845Z,57.15
2016-11-18T00:09:52.828Z,56.9
2016-11-18T00:10:52.815Z,57.18
2016-11-18T00:11:52.795Z,56.77
2016-11-18T00:12:52.776Z,56.77
2016-11-18T00:13:52.455Z,57.28
2016-11-18T00:14:52.752Z,57.06
2016-11-18T00:15:52.734Z,57.06
2016-11-18T00:16:52.715Z,57.25
2016-11-18T00:17:52.700Z,56.96
2016-11-18T00:18:52.691Z,57.06
2016-11-18T00:19:52.670Z,57.06
2016-11-18T00:20:52.648Z,56.99
2016-11-18T00:21:52.633Z,56.9
2016-11-18T00:22:52.616Z,56.87
2016-11-18T00:23:52.606Z,57.54
2016-11-18T00:24:52.590Z,57.57
2016-11-18T00:25:52.570Z,56.96
2016-11-18T00:26:52.559Z,56.87
2016-11-18T00:27:52.540Z,57.45
2016-11-18T00:28:52.524Z,57.35
2016-11-18T00:29:52.510Z,56.77
2016-11-18T00:30:52.494Z,56.38
2016-11-18T00:31:52.477Z,57.51
2016-11-18T00:32:52.462Z,57.68
2016-11-18T00:33:52.447Z,57.58
2016-11-18T00:34:52.432Z,58.06
2016-11-18T00:35:52.411Z,57.58
2016-11-18T00:36:52.396Z,58.03
2016-11-18T00:37:52.380Z,57.75
2016-11-18T00:38:52.369Z,57.84
2016-11-18T00:39:52.346Z,57.87
2016-11-18T00:40:52.333Z,57.97
2016-11-18T00:41:52.317Z,57.42
2016-11-18T00:42:52.297Z,56.74
2016-11-18T00:43:52.283Z,56.45
2016-11-18T00:44:52.266Z,55.98
2016-11-18T00:45:52.253Z,55.62
2016-11-18T00:46:52.268Z,55.62
2016-11-18T00:47:52.218Z,55.59
2016-11-18T00:48:52.201Z,55.71
2016-11-18T00:49:52.190Z,55.52
2016-11-18T00:50:52.171Z,55.71
2016-11-18T00:51:52.158Z,55.62
2016-11-18T00:52:52.134Z,55.71
2016-11-18T00:53:52.125Z,56
2016-11-18T00:54:52.106Z,56
2016-11-18T00:55:52.088Z,55.62
2016-11-18T00:56:52.071Z,56
2016-11-18T00:57:52.058Z,55.71
2016-11-18T00:58:52.044Z,55.81
2016-11-18T00:59:52.023Z,55.81
2016-11-18T01:00:52.002Z,55.9
2016-11-18T01:01:51.993Z,56.2
2016-11-18T01:02:51.976Z,56.29
2016-11-18T01:03:51.962Z,56.38
2016-11-18T01:04:51.943Z,56
2016-11-18T01:05:51.928Z,56.58
2016-11-18T01:06:51.911Z,56.29
2016-11-18T01:07:51.896Z,56.38
2016-11-18T01:08:51.873Z,56.38
2016-11-18T01:09:51.865Z,56.29
2016-11-18T01:10:51.848Z,56.2
2016-11-18T01:11:51.511Z,56.38
2016-11-18T01:12:51.499Z,56.48
2016-11-18T01:13:51.797Z,56.38
2016-11-18T01:14:51.783Z,56.29
2016-11-18T01:15:51.769Z,56.38
2016-11-18T01:16:51.751Z,56.38
2016-11-18T01:17:51.734Z,56.38
2016-11-18T01:18:51.404Z,56.2
2016-11-18T01:19:51.701Z,56.48
2016-11-18T01:20:51.688Z,56.2
2016-11-18T01:21:51.667Z,56.93
2016-11-18T01:22:51.650Z,56.74
2016-11-18T01:23:51.631Z,56.29
2016-11-18T01:24:51.623Z,56.29
2016-11-18T01:25:51.600Z,56.77
2016-11-18T01:26:51.270Z,56.77
2016-11-18T01:27:51.568Z,56.67
2016-11-18T01:28:51.556Z,56.96
2016-11-18T01:29:51.539Z,56.87
2016-11-18T01:30:51.522Z,56.87
2016-11-18T01:31:51.504Z,56.55
2016-11-18T01:32:51.492Z,56.45
2016-11-18T01:33:51.511Z,56.29
2016-11-18T01:34:51.459Z,56.38
2016-11-18T01:35:51.441Z,56.48
2016-11-18T01:36:51.425Z,56.48
2016-11-18T01:37:51.408Z,56.45
2016-11-18T01:38:51.081Z,56.48
2016-11-18T01:39:51.629Z,56.38
2016-11-18T01:40:51.361Z,56.48
2016-11-18T01:41:51.342Z,56.58
2016-11-18T01:42:51.328Z,56.48
2016-11-18T01:43:51.315Z,56.65
2016-11-18T01:44:51.298Z,56.77
2016-11-18T01:45:51.292Z,56.65
2016-11-18T01:46:51.271Z,56.67
2016-11-18T01:47:51.252Z,56.67
2016-11-18T01:48:51.232Z,56.87
2016-11-18T01:49:51.216Z,56.87
2016-11-18T01:50:51.195Z,56.65
2016-11-18T01:51:51.185Z,56.77
2016-11-18T01:52:51.163Z,56.87
2016-11-18T01:53:51.152Z,56.74
2016-11-18T01:54:51.134Z,56.74
2016-11-18T01:55:51.121Z,56.87
2016-11-18T01:56:51.105Z,57.15
2016-11-18T01:57:51.088Z,56.87
2016-11-18T01:58:51.070Z,56.96
2016-11-18T01:59:51.053Z,57.15
2016-11-18T02:00:51.037Z,56.96
2016-11-18T02:01:51.023Z,56.87
2016-11-18T02:02:51.006Z,56.87
2016-11-18T02:03:50.987Z,56.67
2016-11-18T02:04:50.972Z,56.84
2016-11-18T02:05:50.969Z,56.87
2016-11-18T02:06:50.627Z,57.06
2016-11-18T02:07:50.926Z,56.77
2016-11-18T02:08:50.597Z,56.65
2016-11-18T02:09:50.893Z,56.67
2016-11-18T02:10:50.879Z,56.87
2016-11-18T02:11:50.860Z,56.93
2016-11-18T02:12:50.848Z,56.87
2016-11-18T02:13:50.827Z,57.54
2016-11-18T02:14:50.819Z,57.22
2016-11-18T02:15:50.802Z,57.15
2016-11-18T02:16:50.779Z,57.45
2016-11-18T02:17:50.764Z,56.77
2016-11-18T02:18:50.433Z,57.15
2016-11-18T02:19:50.724Z,57.06
2016-11-18T02:20:50.714Z,57.25
2016-11-18T02:21:50.716Z,57.06
2016-11-18T02:22:50.680Z,57.25
2016-11-18T02:23:50.664Z,57.06
2016-11-18T02:24:50.649Z,57.03
2016-11-18T02:25:50.638Z,57.06
2016-11-18T02:26:50.615Z,56.77
2016-11-18T02:27:50.602Z,57.35
2016-11-18T02:28:50.579Z,57.54
2016-11-18T02:29:50.568Z,57.32
2016-11-18T02:30:50.559Z,57.45
2016-11-18T02:31:50.534Z,57.25
2016-11-18T02:32:50.520Z,57.6
2016-11-18T02:33:50.504Z,57.99
2016-11-18T02:34:50.489Z,57.64
2016-11-18T02:35:50.467Z,57.32
2016-11-18T02:36:50.143Z,57.32
2016-11-18T02:37:50.435Z,57.32
2016-11-18T02:38:50.420Z,57.25
2016-11-18T02:39:50.094Z,57.35
2016-11-18T02:40:50.389Z,57.35
2016-11-18T02:41:50.374Z,57.35
2016-11-18T02:42:50.359Z,56.77
2016-11-18T02:43:50.025Z,56.87
2016-11-18T02:44:50.319Z,57.35
2016-11-18T02:45:50.311Z,57.6
2016-11-18T02:46:49.976Z,57.73
2016-11-18T02:47:50.272Z,57.35
2016-11-18T02:48:50.259Z,57.35
2016-11-18T02:49:50.249Z,56.74
2016-11-18T02:50:50.227Z,56.93
2016-11-18T02:51:49.892Z,57.45
2016-11-18T02:52:50.196Z,57.42
2016-11-18T02:53:50.177Z,57.03
2016-11-18T02:54:50.160Z,57.54
2016-11-18T02:55:50.145Z,57.51
2016-11-18T02:56:50.132Z,57.42
2016-11-18T02:57:50.112Z,57.45
2016-11-18T02:58:50.101Z,57.51
2016-11-18T02:59:49.765Z,57.51
2016-11-18T03:00:50.066Z,57.32
2016-11-18T03:01:50.045Z,57.42
2016-11-18T03:02:49.716Z,57.22
2016-11-18T03:03:50.015Z,57.42
2016-11-18T03:04:49.999Z,57.51
2016-11-18T03:05:49.983Z,57.51
2016-11-18T03:06:49.961Z,57.32
2016-11-18T03:07:49.952Z,57.32
2016-11-18T03:08:49.929Z,57.51
2016-11-18T03:09:49.919Z,57.32
2016-11-18T03:10:49.900Z,57.32
2016-11-18T03:11:49.886Z,57.32
2016-11-18T03:12:49.863Z,57.32
2016-11-18T03:13:49.878Z,57.32
2016-11-18T03:14:49.837Z,57.32
2016-11-18T03:15:49.814Z,57.42
2016-11-18T03:16:49.806Z,57.42
2016-11-18T03:17:49.789Z,57.6
2016-11-18T03:18:49.770Z,57.51
2016-11-18T03:19:49.755Z,57.7
2016-11-18T03:20:49.740Z,57.99
2016-11-18T03:21:49.722Z,57.51
2016-11-18T03:22:49.705Z,57.7
2016-11-18T03:23:49.686Z,58.18
2016-11-18T03:24:49.675Z,58.18
2016-11-18T03:25:49.657Z,57.99
2016-11-18T03:26:49.641Z,57.99
2016-11-18T03:27:49.624Z,57.8
2016-11-18T03:28:49.603Z,57.8
2016-11-18T03:29:49.594Z,58.09
2016-11-18T03:30:49.578Z,57.7
2016-11-18T03:31:49.239Z,57.8
2016-11-18T03:32:49.540Z,57.99
2016-11-18T03:33:49.523Z,58.09
2016-11-18T03:34:49.504Z,58.18
2016-11-18T03:35:49.496Z,57.9
2016-11-18T03:36:49.475Z,58.18
2016-11-18T03:37:49.461Z,57.8
2016-11-18T03:38:49.441Z,57.8
2016-11-18T03:39:49.461Z,57.9
2016-11-18T03:40:49.411Z,57.8
2016-11-18T03:41:49.398Z,57.7
2016-11-18T03:42:49.384Z,57.9
2016-11-18T03:43:49.360Z,57.9
2016-11-18T03:44:49.339Z,57.9
2016-11-18T03:45:49.326Z,57.8
2016-11-18T03:46:49.311Z,57.7
2016-11-18T03:47:49.299Z,57.9
2016-11-18T03:48:49.280Z,57.99
2016-11-18T03:49:49.259Z,57.7
2016-11-18T03:50:49.249Z,57.51
2016-11-18T03:51:49.232Z,57.51
2016-11-18T03:52:49.212Z,57.51
2016-11-18T03:53:49.203Z,57.51
2016-11-18T03:54:49.174Z,57.51
2016-11-18T03:55:49.169Z,57.6
2016-11-18T03:56:49.147Z,57.7
2016-11-18T03:57:49.132Z,57.7
2016-11-18T03:58:49.109Z,57.6
2016-11-18T03:59:49.095Z,57.6
2016-11-18T04:00:49.084Z,57.8
2016-11-18T04:01:49.067Z,57.8
2016-11-18T04:02:49.052Z,57.51
2016-11-18T04:03:49.032Z,57.6
2016-11-18T04:04:49.019Z,57.6
2016-11-18T04:05:49.002Z,57.7
2016-11-18T04:06:48.987Z,57.8
2016-11-18T04:07:48.967Z,57.6
2016-11-18T04:08:48.986Z,57.6
2016-11-18T04:09:48.937Z,57.6
2016-11-18T04:10:48.916Z,57.6
2016-11-18T04:11:48.906Z,57.6
2016-11-18T04:12:48.881Z,57.6
2016-11-18T04:13:48.875Z,57.51
2016-11-18T04:14:48.853Z,57.51
2016-11-18T04:15:48.840Z,57.7
2016-11-18T04:16:48.824Z,57.7
2016-11-18T04:17:48.485Z,57.6
2016-11-18T04:18:48.790Z,57.6
2016-11-18T04:19:48.767Z,57.6
2016-11-18T04:20:48.757Z,57.51
2016-11-18T04:21:48.738Z,57.6
2016-11-18T04:22:48.731Z,57.51
2016-11-18T04:23:48.708Z,57.8
2016-11-18T04:24:48.693Z,57.51
2016-11-18T04:25:48.668Z,57.51
2016-11-18T04:26:48.654Z,57.42
2016-11-18T04:27:48.639Z,57.8
2016-11-18T04:28:48.624Z,58.18
2016-11-18T04:29:48.610Z,57.7
2016-11-18T04:30:48.600Z,57.51
2016-11-18T04:31:48.574Z,57.8
2016-11-18T04:32:48.561Z,57.8
2016-11-18T04:33:48.542Z,57.8
2016-11-18T04:34:48.531Z,57.8
2016-11-18T04:35:48.512Z,57.42
2016-11-18T04:36:48.176Z,57.51
2016-11-18T04:37:48.485Z,57.8
2016-11-18T04:38:48.139Z,57.8
2016-11-18T04:39:48.447Z,57.8
2016-11-18T04:40:48.425Z,57.9
2016-11-18T04:41:48.420Z,57.9
2016-11-18T04:42:48.395Z,57.8
2016-11-18T04:43:48.394Z,57.8
2016-11-18T04:44:48.365Z,57.8
2016-11-18T04:45:48.350Z,57.9
2016-11-18T04:46:48.588Z,57.9
2016-11-18T04:47:48.311Z,57.8
2016-11-18T04:48:48.297Z,57.7
2016-11-18T04:49:48.279Z,57.99
2016-11-18T04:50:48.262Z,57.6
2016-11-18T04:51:47.934Z,58.09
2016-11-18T04:52:48.229Z,58.09
2016-11-18T04:53:48.216Z,57.6
2016-11-18T04:54:48.198Z,57.99
2016-11-18T04:55:48.183Z,57.6
2016-11-18T04:56:48.162Z,57.6
2016-11-18T04:57:48.149Z,57.8
2016-11-18T04:58:48.138Z,57.8
2016-11-18T04:59:48.112Z,57.9
2016-11-18T05:00:48.099Z,57.8
2016-11-18T05:01:48.096Z,57.8
2016-11-18T05:02:48.073Z,57.8
2016-11-18T05:03:48.051Z,57.7
2016-11-18T05:04:48.037Z,57.8
2016-11-18T05:05:48.016Z,57.7
2016-11-18T05:06:48.007Z,57.7
2016-11-18T05:07:47.989Z,57.9
2016-11-18T05:08:47.969Z,57.7
2016-11-18T05:09:47.948Z,56.84
2016-11-18T05:10:47.943Z,57.15
2016-11-18T05:11:47.604Z,56.67
2016-11-18T05:12:47.901Z,56.48
2016-11-18T05:13:47.884Z,56.67
2016-11-18T05:14:47.872Z,56.87
2016-11-18T05:15:47.859Z,56.58
2016-11-18T05:16:47.838Z,56.38
2016-11-18T05:17:47.825Z,56.29
2016-11-18T05:18:47.806Z,56.29
2016-11-18T05:19:47.794Z,55.9
2016-11-18T05:20:47.771Z,55.93
2016-11-18T05:21:47.756Z,56
2016-11-18T05:22:47.775Z,55.93
2016-11-18T05:23:47.723Z,55.55
2016-11-18T05:24:47.706Z,55.65
2016-11-18T05:25:47.685Z,55.74
2016-11-18T05:26:48.337Z,55.74
2016-11-18T05:27:47.662Z,55.83
2016-11-18T05:28:47.646Z,55.74
2016-11-18T05:29:47.626Z,55.74
2016-11-18T05:30:47.609Z,55.74
2016-11-18T05:31:47.592Z,55.65
2016-11-18T05:32:47.576Z,55.55
2016-11-18T05:33:47.561Z,55.74
2016-11-18T05:34:47.551Z,55.45
2016-11-18T05:35:47.527Z,55.83
2016-11-18T05:36:47.514Z,55.93
2016-11-18T05:37:47.494Z,55.83
2016-11-18T05:38:47.479Z,55.83
2016-11-18T05:39:47.467Z,55.93
2016-11-18T05:40:47.445Z,55.65
2016-11-18T05:41:47.430Z,55.65
2016-11-18T05:42:47.410Z,55.83
2016-11-18T05:43:47.398Z,55.83
2016-11-18T05:44:47.382Z,55.74
2016-11-18T05:45:47.365Z,55.74
2016-11-18T05:46:47.350Z,55.74
2016-11-18T05:47:47.335Z,55.74
2016-11-18T05:48:47.318Z,55.74
2016-11-18T05:49:47.302Z,55.74
2016-11-18T05:50:47.289Z,56.03
2016-11-18T05:51:47.269Z,55.93
2016-11-18T05:52:47.259Z,55.65
2016-11-18T05:53:47.239Z,55.74
2016-11-18T05:54:47.226Z,55.74
2016-11-18T05:55:47.207Z,55.93
2016-11-18T05:56:47.194Z,55.93
2016-11-18T05:57:47.171Z,55.93
2016-11-18T05:58:47.162Z,55.55
2016-11-18T05:59:47.148Z,55.74
2016-11-18T06:00:47.127Z,55.83
2016-11-18T06:01:47.109Z,55.93
2016-11-18T06:02:47.094Z,55.65
2016-11-18T06:03:47.081Z,55.74
2016-11-18T06:04:47.264Z,55.65
2016-11-18T06:05:47.043Z,55.74
2016-11-18T06:06:47.030Z,56.32
2016-11-18T06:07:47.012Z,55.65
2016-11-18T06:08:46.997Z,55.74
2016-11-18T06:09:46.988Z,55.35
2016-11-18T06:10:46.965Z,55.65
2016-11-18T06:11:46.987Z,55.74
2016-11-18T06:12:46.933Z,55.74
2016-11-18T06:13:46.918Z,55.93
2016-11-18T06:14:46.906Z,55.74
2016-11-18T06:15:46.883Z,55.74
2016-11-18T06:16:46.874Z,55.74
2016-11-18T06:17:46.850Z,56.03
2016-11-18T06:18:46.840Z,55.45
2016-11-18T06:19:46.822Z,56.03
2016-11-18T06:20:46.805Z,55.55
2016-11-18T06:21:46.786Z,55.65
2016-11-18T06:22:46.455Z,55.74
2016-11-18T06:23:46.753Z,55.74
2016-11-18T06:24:46.745Z,55.65
2016-11-18T06:25:46.725Z,55.93
2016-11-18T06:26:46.710Z,55.83
2016-11-18T06:27:46.693Z,55.65
2016-11-18T06:28:46.679Z,56.03
2016-11-18T06:29:46.660Z,55.16
2016-11-18T06:30:46.643Z,55.55
2016-11-18T06:31:46.642Z,55.09
2016-11-18T06:32:46.615Z,55.19
2016-11-18T06:33:46.615Z,55.45
2016-11-18T06:34:46.580Z,55.26
2016-11-18T06:35:46.586Z,55.26
2016-11-18T06:36:46.546Z,55.55
2016-11-18T06:37:46.533Z,55.35
2016-11-18T06:38:46.520Z,55.35
2016-11-18T06:39:46.501Z,55.16
2016-11-18T06:40:46.487Z,55.55
2016-11-18T06:41:46.469Z,55.26
2016-11-18T06:42:46.451Z,54.97
2016-11-18T06:43:46.433Z,55.35
2016-11-18T06:44:46.425Z,55.65
2016-11-18T06:45:46.416Z,55.55
2016-11-18T06:46:46.395Z,55.55
2016-11-18T06:47:46.377Z,55.16
2016-11-18T06:48:46.362Z,55.65
2016-11-18T06:49:46.345Z,55.65
2016-11-18T06:50:46.332Z,55.65
2016-11-18T06:51:46.309Z,55.35
2016-11-18T06:52:45.977Z,54.78
2016-11-18T06:53:46.276Z,55.45
2016-11-18T06:54:46.262Z,54.87
2016-11-18T06:55:46.250Z,54.87
2016-11-18T06:56:46.233Z,54.9
2016-11-18T06:57:46.218Z,55.55
2016-11-18T06:58:46.200Z,55.65
2016-11-18T06:59:46.182Z,55.26
2016-11-18T07:00:46.266Z,55.67
2016-11-18T07:01:46.155Z,55.83
2016-11-18T07:02:46.148Z,55.74
2016-11-18T07:03:46.118Z,55.29
2016-11-18T07:04:46.105Z,55.26
2016-11-18T07:05:46.085Z,55.45
2016-11-18T07:06:46.073Z,55.55
2016-11-18T07:07:46.055Z,55.83
2016-11-18T07:08:46.038Z,54.87
2016-11-18T07:09:46.025Z,54.49
2016-11-18T07:10:46.010Z,54.8
2016-11-18T07:11:45.998Z,54.78
2016-11-18T07:12:45.980Z,53.53
2016-11-18T07:13:45.965Z,53.62
2016-11-18T07:14:45.945Z,52.56
2016-11-18T07:15:45.934Z,52.66
2016-11-18T07:16:45.917Z,52.56
2016-11-18T07:17:45.902Z,52.85
2016-11-18T07:18:45.884Z,53.05
2016-11-18T07:19:45.867Z,52.37
2016-11-18T07:20:45.856Z,53.53
2016-11-18T07:21:45.835Z,53.05
2016-11-18T07:22:45.826Z,53.81
2016-11-18T07:23:45.813Z,53.43
2016-11-18T07:24:45.783Z,53.91
2016-11-18T07:25:45.774Z,54
2016-11-18T07:26:45.755Z,53.91
2016-11-18T07:27:45.740Z,53.53
2016-11-18T07:28:45.724Z,53.62
2016-11-18T07:29:45.710Z,53.81
2016-11-18T07:30:45.688Z,53.53
2016-11-18T07:31:45.677Z,53.72
2016-11-18T07:32:45.660Z,53.53
2016-11-18T07:33:45.640Z,53.81
2016-11-18T07:34:45.625Z,53.94
2016-11-18T07:35:45.615Z,53.94
2016-11-18T07:36:45.597Z,53.53
2016-11-18T07:37:45.581Z,53.91
2016-11-18T07:38:45.564Z,53.81
2016-11-18T07:39:45.549Z,53.55
2016-11-18T07:40:45.530Z,53.91
2016-11-18T07:41:45.516Z,54.32
2016-11-18T07:42:45.502Z,54.39
2016-11-18T07:43:45.486Z,54.49
2016-11-18T07:44:45.471Z,54.58
2016-11-18T07:45:45.450Z,54.13
2016-11-18T07:46:45.435Z,54.42
2016-11-18T07:47:45.423Z,54.52
2016-11-18T07:48:45.402Z,54.52
2016-11-18T07:49:45.393Z,54.49
2016-11-18T07:50:45.376Z,54.2
2016-11-18T07:51:45.360Z,54.39
2016-11-18T07:52:45.341Z,54
2016-11-18T07:53:45.321Z,53.91
2016-11-18T07:54:45.313Z,53.55
2016-11-18T07:55:45.302Z,53.55
2016-11-18T07:56:45.286Z,53.55
2016-11-18T07:57:45.267Z,54.22
2016-11-18T07:58:45.248Z,53.94
2016-11-18T07:59:45.228Z,54.61
2016-11-18T08:00:45.215Z,54.13
2016-11-18T08:01:45.200Z,53.94
2016-11-18T08:02:45.185Z,54.61
2016-11-18T08:03:45.168Z,54.13
2016-11-18T08:04:45.150Z,54.42
2016-11-18T08:05:45.138Z,54.42
2016-11-18T08:06:44.809Z,54.42
2016-11-18T08:07:45.107Z,54.22
2016-11-18T08:08:45.090Z,54.42
2016-11-18T08:09:45.080Z,53.84
2016-11-18T08:10:45.057Z,54.52
2016-11-18T08:11:45.040Z,54.03
2016-11-18T08:12:45.033Z,53.65
2016-11-18T08:13:45.012Z,53.65
2016-11-18T08:14:44.997Z,53.55
2016-11-18T08:15:44.982Z,53.84
2016-11-18T08:16:44.958Z,53.55
2016-11-18T08:17:44.951Z,53.84
2016-11-18T08:18:44.930Z,54.22
2016-11-18T08:19:44.917Z,53.55
2016-11-18T08:20:44.897Z,54.32
2016-11-18T08:21:44.886Z,54.13
2016-11-18T08:22:44.869Z,53.94
2016-11-18T08:23:44.854Z,54.42
2016-11-18T08:24:44.841Z,54.52
2016-11-18T08:25:44.817Z,54.49
2016-11-18T08:26:44.814Z,54.52
2016-11-18T08:27:44.787Z,54.61
2016-11-18T08:28:44.771Z,54.42
2016-11-18T08:29:44.760Z,50.37
2016-11-18T08:30:44.751Z,51.09
2016-11-18T08:31:44.726Z,51.43
2016-11-18T08:32:44.709Z,52.98
2016-11-18T08:33:44.690Z,54.49
2016-11-18T08:34:44.679Z,54.8
2016-11-18T08:35:44.670Z,53.3
2016-11-18T08:36:44.646Z,51.5
2016-11-18T08:37:44.630Z,50.46
2016-11-18T08:38:44.300Z,50.18
2016-11-18T08:39:44.600Z,49.43
2016-11-18T08:40:44.584Z,49.72
2016-11-18T08:41:44.574Z,49.24
2016-11-18T08:42:44.557Z,49.05
2016-11-18T08:43:44.535Z,49.05
2016-11-18T08:44:44.521Z,48.76
2016-11-18T08:45:44.187Z,48.95
2016-11-18T08:46:44.484Z,48.85
2016-11-18T08:47:44.473Z,48.95
2016-11-18T08:48:44.451Z,48.47
2016-11-18T08:49:44.441Z,49.46
2016-11-18T08:50:44.420Z,48.88
2016-11-18T08:51:44.406Z,48.88
2016-11-18T08:52:44.390Z,49.74
2016-11-18T08:53:44.374Z,49.55
2016-11-18T08:54:44.361Z,50.06
2016-11-18T08:55:44.341Z,49.77
2016-11-18T08:56:44.330Z,50.06
2016-11-18T08:57:44.305Z,50.25
2016-11-18T08:58:44.298Z,50.15
2016-11-18T08:59:44.279Z,50.25
2016-11-18T09:00:44.258Z,50.63
2016-11-18T09:01:44.243Z,50.54
2016-11-18T09:02:44.231Z,50.35
2016-11-18T09:03:44.250Z,50.63
2016-11-18T09:04:44.197Z,50.37
2016-11-18T09:05:44.187Z,50.45
2016-11-18T09:06:44.164Z,50.45
2016-11-18T09:07:44.155Z,50.57
2016-11-18T09:08:44.134Z,50.57
2016-11-18T09:09:44.119Z,50.83
2016-11-18T09:10:44.100Z,50.35
2016-11-18T09:11:44.084Z,50.25
2016-11-18T09:12:44.073Z,50.25
2016-11-18T09:13:44.062Z,50.27
2016-11-18T09:14:44.035Z,50.35
2016-11-18T09:15:44.020Z,50.18
2016-11-18T09:16:44.009Z,50.35
2016-11-18T09:17:43.985Z,50.37
2016-11-18T09:18:43.972Z,50.25
2016-11-18T09:19:43.961Z,50.45
2016-11-18T09:20:43.947Z,50.45
2016-11-18T09:21:43.926Z,50.57
2016-11-18T09:22:43.903Z,50.45
2016-11-18T09:23:43.892Z,50.73
2016-11-18T09:24:43.564Z,50.54
2016-11-18T09:25:43.875Z,50.83
2016-11-18T09:26:43.841Z,50.83
2016-11-18T09:27:43.518Z,50.73
2016-11-18T09:28:43.814Z,50.85
2016-11-18T09:29:43.797Z,50.66
2016-11-18T09:30:43.777Z,50.57
2016-11-18T09:31:43.768Z,50.63
2016-11-18T09:32:43.745Z,50.83
2016-11-18T09:33:43.755Z,50.73
2016-11-18T09:34:43.719Z,50.93
2016-11-18T09:35:43.707Z,51.24
2016-11-18T09:36:43.686Z,50.83
2016-11-18T09:37:43.665Z,50.85
2016-11-18T09:38:43.656Z,50.83
2016-11-18T09:39:43.634Z,50.83
2016-11-18T09:40:43.638Z,50.76
2016-11-18T09:41:43.615Z,50.93
2016-11-18T09:42:43.599Z,50.93
2016-11-18T09:43:43.254Z,51.12
2016-11-18T09:44:43.558Z,51.53
2016-11-18T09:45:43.543Z,51.31
2016-11-18T09:46:43.521Z,51.5
2016-11-18T09:47:43.526Z,51.14
2016-11-18T09:48:43.493Z,51.31
2016-11-18T09:49:43.479Z,51.62
2016-11-18T09:50:43.466Z,51.21
2016-11-18T09:51:43.447Z,51.24
2016-11-18T09:52:43.114Z,51.21
2016-11-18T09:53:43.434Z,51.21
2016-11-18T09:54:43.403Z,51.31
2016-11-18T09:55:43.381Z,51.31
2016-11-18T09:56:43.362Z,51.5
2016-11-18T09:57:43.349Z,51.31
2016-11-18T09:58:43.332Z,51.21
2016-11-18T09:59:43.005Z,51.31
2016-11-18T10:00:43.304Z,51.12
2016-11-18T10:01:43.288Z,51.7
2016-11-18T10:02:43.272Z,52.08
2016-11-18T10:03:43.254Z,51.89
2016-11-18T10:04:43.242Z,51.41
2016-11-18T10:05:43.224Z,52.11
2016-11-18T10:06:43.212Z,52.3
2016-11-18T10:07:43.193Z,52.3
2016-11-18T10:08:43.174Z,52.2
2016-11-18T10:09:43.156Z,52.78
2016-11-18T10:10:43.145Z,52.4
2016-11-18T10:11:43.133Z,53.07
2016-11-18T10:12:43.106Z,53.36
2016-11-18T10:13:43.097Z,53.65
2016-11-18T10:14:43.078Z,53.45
2016-11-18T10:15:43.063Z,53.55
2016-11-18T10:16:43.052Z,52.47
2016-11-18T10:17:43.030Z,52.49
2016-11-18T10:18:43.017Z,53.27
2016-11-18T10:19:43.003Z,53.55
2016-11-18T10:20:42.984Z,52.78
2016-11-18T10:21:42.969Z,52.49
2016-11-18T10:22:42.952Z,53.07
2016-11-18T10:23:42.933Z,52.87
2016-11-18T10:24:42.924Z,53.27
2016-11-18T10:25:42.904Z,53.94
2016-11-18T10:26:42.889Z,54.13
2016-11-18T10:27:42.877Z,53.94
2016-11-18T10:28:42.545Z,54.52
2016-11-18T10:29:42.841Z,54.22
2016-11-18T10:30:42.829Z,53.94
2016-11-18T10:31:42.813Z,54.52
2016-11-18T10:32:42.794Z,54.42
2016-11-18T10:33:42.783Z,54.42
2016-11-18T10:34:42.766Z,53.84
2016-11-18T10:35:42.745Z,53.94
2016-11-18T10:36:42.729Z,53.65
2016-11-18T10:37:42.722Z,53.55
2016-11-18T10:38:42.702Z,53.45
2016-11-18T10:39:42.680Z,53.45
2016-11-18T10:40:42.670Z,53.65
2016-11-18T10:41:42.656Z,52.97
2016-11-18T10:42:42.640Z,52.87
2016-11-18T10:43:42.620Z,52.87
2016-11-18T10:44:42.605Z,52.87
2016-11-18T10:45:42.594Z,52.78
2016-11-18T10:46:42.569Z,53.17
2016-11-18T10:47:42.569Z,53.07
2016-11-18T10:48:42.538Z,52.97
2016-11-18T10:49:42.523Z,53.17
2016-11-18T10:50:42.514Z,53.17
2016-11-18T10:51:42.487Z,52.49
2016-11-18T10:52:42.482Z,53.07
2016-11-18T10:53:42.463Z,53.07
2016-11-18T10:54:42.447Z,53.07
2016-11-18T10:55:42.428Z,52.59
2016-11-18T10:56:42.425Z,53.07
2016-11-18T10:57:42.395Z,52.97
2016-11-18T10:58:42.382Z,52.78
2016-11-18T10:59:42.369Z,52.59
2016-11-18T11:00:42.390Z,52.4
2016-11-18T11:01:42.336Z,53.07
2016-11-18T11:02:42.326Z,53.07
2016-11-18T11:03:42.305Z,53.07
2016-11-18T11:04:42.289Z,53.27
2016-11-18T11:05:42.270Z,53.55
2016-11-18T11:06:42.259Z,53.55
2016-11-18T11:07:42.244Z,53.65
2016-11-18T11:08:42.232Z,53.27
2016-11-18T11:09:42.213Z,52.97
2016-11-18T11:10:42.200Z,53.27
2016-11-18T11:11:42.191Z,53.17
2016-11-18T11:12:42.388Z,53.65
2016-11-18T11:13:42.150Z,53.74
2016-11-18T11:14:42.148Z,53.17
2016-11-18T11:15:42.123Z,53.07
2016-11-18T11:16:41.788Z,53.36
2016-11-18T11:17:42.090Z,53.07
2016-11-18T11:18:42.075Z,53.07
2016-11-18T11:19:42.057Z,53.07
2016-11-18T11:20:42.039Z,52.78
2016-11-18T11:21:42.021Z,52.87
2016-11-18T11:22:42.006Z,52.97
2016-11-18T11:23:41.675Z,52.87
2016-11-18T11:24:41.974Z,52.97
2016-11-18T11:25:41.967Z,53.27
2016-11-18T11:26:41.944Z,52.87
2016-11-18T11:27:41.929Z,52.97
2016-11-18T11:28:41.599Z,52.97
2016-11-18T11:29:41.928Z,53.27
2016-11-18T11:30:41.572Z,53.07
2016-11-18T11:31:41.870Z,52.87
2016-11-18T11:32:41.851Z,52.97
2016-11-18T11:33:41.835Z,52.87
2016-11-18T11:34:41.824Z,52.69
2016-11-18T11:35:41.805Z,53.07
2016-11-18T11:36:41.791Z,53.07
2016-11-18T11:37:41.770Z,52.97
2016-11-18T11:38:41.755Z,52.97
2016-11-18T11:39:41.742Z,52.97
2016-11-18T11:40:41.720Z,52.87
2016-11-18T11:41:41.710Z,52.49
2016-11-18T11:42:41.695Z,53.17
2016-11-18T11:43:41.676Z,53.07
2016-11-18T11:44:41.664Z,53.07
2016-11-18T11:45:41.645Z,52.97
2016-11-18T11:46:41.634Z,52.97
2016-11-18T11:47:41.297Z,52.87
2016-11-18T11:48:41.594Z,52.59
2016-11-18T11:49:41.595Z,53.07
2016-11-18T11:50:41.573Z,52.59
2016-11-18T11:51:41.554Z,53.17
2016-11-18T11:52:41.543Z,52.49
2016-11-18T11:53:41.522Z,52.59
2016-11-18T11:54:41.503Z,53.65
2016-11-18T11:55:41.493Z,53.07
2016-11-18T11:56:41.480Z,52.91
2016-11-18T11:57:41.457Z,52.61
2016-11-18T11:58:41.124Z,52.23
2016-11-18T11:59:41.425Z,52.71
2016-11-18T12:00:41.409Z,52.71
2016-11-18T12:01:41.396Z,52.52
2016-11-18T12:02:41.385Z,53
2016-11-18T12:03:41.363Z,52.52
2016-11-18T12:04:41.349Z,53.09
2016-11-18T12:05:41.346Z,52.91
2016-11-18T12:06:41.316Z,53.19
2016-11-18T12:07:41.307Z,53.67
2016-11-18T12:08:41.286Z,53.48
2016-11-18T12:09:41.283Z,52.91
2016-11-18T12:10:41.271Z,53.58
2016-11-18T12:11:41.255Z,53.67
2016-11-18T12:12:41.221Z,53.58
2016-11-18T12:13:41.217Z,53.67
2016-11-18T12:14:41.199Z,53.48
2016-11-18T12:15:40.869Z,52.91
2016-11-18T12:16:40.853Z,53.67
2016-11-18T12:17:41.152Z,53.77
2016-11-18T12:18:41.140Z,53.48
2016-11-18T12:19:41.121Z,53.29
2016-11-18T12:20:41.109Z,53.67
2016-11-18T12:21:41.097Z,52.33
2016-11-18T12:22:41.067Z,52.61
2016-11-18T12:23:41.067Z,53.09
2016-11-18T12:24:41.047Z,53.58
2016-11-18T12:25:41.032Z,53.19
2016-11-18T12:26:41.016Z,53.39
2016-11-18T12:27:41.003Z,53.29
2016-11-18T12:28:40.988Z,53.39
2016-11-18T12:29:40.975Z,53.29
2016-11-18T12:30:40.943Z,53.67
2016-11-18T12:31:40.929Z,53.67
2016-11-18T12:32:40.915Z,53.67
2016-11-18T12:33:40.901Z,53.19
2016-11-18T12:34:40.889Z,53.58
2016-11-18T12:35:40.891Z,53.48
2016-11-18T12:36:40.851Z,53.48
2016-11-18T12:37:40.841Z,53.67
2016-11-18T12:38:40.497Z,53.58
2016-11-18T12:39:40.499Z,53.87
2016-11-18T12:40:40.794Z,54.54
2016-11-18T12:41:40.774Z,54.35
2016-11-18T12:42:40.757Z,54.93
2016-11-18T12:43:40.755Z,54.44
2016-11-18T12:44:40.720Z,54.44
2016-11-18T12:45:40.395Z,54.44
2016-11-18T12:46:40.702Z,54.44
2016-11-18T12:47:40.686Z,54.44
2016-11-18T12:48:40.673Z,54.25
2016-11-18T12:49:40.707Z,54.44
2016-11-18T12:50:40.644Z,54.35
2016-11-18T12:51:40.636Z,54.44
2016-11-18T12:52:40.607Z,54.74
2016-11-18T12:53:40.589Z,55.02
2016-11-18T12:54:40.581Z,54.93
2016-11-18T12:55:40.576Z,54.83
2016-11-18T12:56:40.549Z,54.64